sensor_id;sensor_type;location;lat;lon;timestamp;temperature;humidity
55648;DHT22;45266;48.756;9.246;2024-03-23T00:56:47;5.60;89.00
55648;DHT22;45266;48.756;9.246;2024-03-23T01:01:47;5.50;88.50
55648;DHT22;45266;48.756;9.246;2024-03-23T01:06:48;5.50;89.10
55648;DHT22;45266;48.756;9.246;2024-03-23T01:11:49;5.40;89.50
55648;DHT22;45266;48.756;9.246;2024-03-23T01:16:50;5.50;90.00
55648;DHT22;45266;48.756;9.246;2024-03-23T01:21:51;5.50;90.30
55648;DHT22;45266;48.756;9.246;2024-03-23T01:26:51;5.70;90.70
55648;DHT22;45266;48.756;9.246;2024-03-23T01:31:53;5.90;90.00
55648;DHT22;45266;48.756;9.246;2024-03-23T01:36:54;6.00;89.70
55648;DHT22;45266;48.756;9.246;2024-03-23T01:41:54;6.00;89.30
55648;DHT22;45266;48.756;9.246;2024-03-23T01:46:55;6.00;89.60
55648;DHT22;45266;48.756;9.246;2024-03-23T01:51:56;6.00;90.00
55648;DHT22;45266;48.756;9.246;2024-03-23T01:56:57;6.00;89.90
55648;DHT22;45266;48.756;9.246;2024-03-23T02:01:59;6.00;89.90
55648;DHT22;45266;48.756;9.246;2024-03-23T02:07:00;6.10;89.60
55648;DHT22;45266;48.756;9.246;2024-03-23T02:12:02;6.10;89.50
55648;DHT22;45266;48.756;9.246;2024-03-23T02:17:03;6.10;89.40
55648;DHT22;45266;48.756;9.246;2024-03-23T02:22:04;6.10;89.30
55648;DHT22;45266;48.756;9.246;2024-03-23T02:27:05;6.00;89.00
55648;DHT22;45266;48.756;9.246;2024-03-23T02:32:06;6.00;89.20
55648;DHT22;45266;48.756;9.246;2024-03-23T02:37:12;6.00;89.60
55648;DHT22;45266;48.756;9.246;2024-03-23T02:42:13;5.90;89.60
55648;DHT22;45266;48.756;9.246;2024-03-23T02:47:14;5.90;89.80
55648;DHT22;45266;48.756;9.246;2024-03-23T02:52:15;5.90;90.00
55648;DHT22;45266;48.756;9.246;2024-03-23T02:57:16;5.90;89.90
55648;DHT22;45266;48.756;9.246;2024-03-23T03:02:16;5.80;90.10
55648;DHT22;45266;48.756;9.246;2024-03-23T03:07:17;5.80;90.20
55648;DHT22;45266;48.756;9.246;2024-03-23T03:12:18;5.70;90.20
55648;DHT22;45266;48.756;9.246;2024-03-23T03:17:19;5.60;90.30
55648;DHT22;45266;48.756;9.246;2024-03-23T03:22:20;5.50;90.50
55648;DHT22;45266;48.756;9.246;2024-03-23T03:27:20;5.50;90.90
55648;DHT22;45266;48.756;9.246;2024-03-23T03:32:23;5.50;91.00
55648;DHT22;45266;48.756;9.246;2024-03-23T03:37:24;5.40;91.10
55648;DHT22;45266;48.756;9.246;2024-03-23T03:42:25;5.30;91.40
55648;DHT22;45266;48.756;9.246;2024-03-23T03:47:26;5.30;91.00
55648;DHT22;45266;48.756;9.246;2024-03-23T03:52:27;5.20;91.80
55648;DHT22;45266;48.756;9.246;2024-03-23T03:57:28;5.10;91.60
55648;DHT22;45266;48.756;9.246;2024-03-23T04:02:29;5.10;92.00
55648;DHT22;45266;48.756;9.246;2024-03-23T04:07:29;5.10;92.20
55648;DHT22;45266;48.756;9.246;2024-03-23T04:12:30;5.00;92.20
55648;DHT22;45266;48.756;9.246;2024-03-23T04:17:31;4.90;92.00
55648;DHT22;45266;48.756;9.246;2024-03-23T04:22:33;4.90;93.20
55648;DHT22;45266;48.756;9.246;2024-03-23T04:27:34;4.90;93.50
55648;DHT22;45266;48.756;9.246;2024-03-23T04:32:39;5.00;93.90
55648;DHT22;45266;48.756;9.246;2024-03-23T04:37:40;5.00;94.50
55648;DHT22;45266;48.756;9.246;2024-03-23T04:42:41;5.10;94.80
55648;DHT22;45266;48.756;9.246;2024-03-23T04:47:42;5.30;95.30
55648;DHT22;45266;48.756;9.246;2024-03-23T04:52:43;5.50;95.20
55648;DHT22;45266;48.756;9.246;2024-03-23T04:57:44;5.90;95.30
55648;DHT22;45266;48.756;9.246;2024-03-23T05:02:45;6.50;95.40
55648;DHT22;45266;48.756;9.246;2024-03-23T05:07:46;7.20;94.40
55648;DHT22;45266;48.756;9.246;2024-03-23T05:12:47;7.80;93.40
55648;DHT22;45266;48.756;9.246;2024-03-23T05:17:47;8.00;94.00
55648;DHT22;45266;48.756;9.246;2024-03-23T05:22:49;8.20;94.80
55648;DHT22;45266;48.756;9.246;2024-03-23T05:27:51;8.10;95.60
55648;DHT22;45266;48.756;9.246;2024-03-23T05:32:52;8.10;96.30
55648;DHT22;45266;48.756;9.246;2024-03-23T05:37:53;8.20;96.90
55648;DHT22;45266;48.756;9.246;2024-03-23T05:42:54;8.30;96.90
55648;DHT22;45266;48.756;9.246;2024-03-23T05:47:56;8.50;95.90
55648;DHT22;45266;48.756;9.246;2024-03-23T05:52:57;8.60;93.50
55648;DHT22;45266;48.756;9.246;2024-03-23T05:57:58;8.70;91.80
55648;DHT22;45266;48.756;9.246;2024-03-23T06:03:00;8.90;90.70
55648;DHT22;45266;48.756;9.246;2024-03-23T06:08:01;8.80;90.60
55648;DHT22;45266;48.756;9.246;2024-03-23T06:13:03;8.80;90.10
55648;DHT22;45266;48.756;9.246;2024-03-23T06:18:05;8.60;88.50
55648;DHT22;45266;48.756;9.246;2024-03-23T06:23:06;8.70;85.90
55648;DHT22;45266;48.756;9.246;2024-03-23T06:28:07;8.60;84.60
55648;DHT22;45266;48.756;9.246;2024-03-23T06:33:08;8.60;85.10
55648;DHT22;45266;48.756;9.246;2024-03-23T06:38:09;8.60;84.60
55648;DHT22;45266;48.756;9.246;2024-03-23T06:43:11;8.60;83.00
55648;DHT22;45266;48.756;9.246;2024-03-23T06:48:12;8.50;83.30
55648;DHT22;45266;48.756;9.246;2024-03-23T06:53:13;8.40;82.10
55648;DHT22;45266;48.756;9.246;2024-03-23T06:58:14;8.30;80.90
55648;DHT22;45266;48.756;9.246;2024-03-23T07:03:17;8.30;79.90
55648;DHT22;45266;48.756;9.246;2024-03-23T07:08:18;8.20;79.70
55648;DHT22;45266;48.756;9.246;2024-03-23T07:13:23;8.30;79.70
55648;DHT22;45266;48.756;9.246;2024-03-23T07:18:24;8.20;80.40
55648;DHT22;45266;48.756;9.246;2024-03-23T07:23:25;8.30;80.00
55648;DHT22;45266;48.756;9.246;2024-03-23T07:28:26;8.30;79.60
55648;DHT22;45266;48.756;9.246;2024-03-23T07:33:28;8.30;79.20
55648;DHT22;45266;48.756;9.246;2024-03-23T07:38:29;8.50;78.80
55648;DHT22;45266;48.756;9.246;2024-03-23T07:43:30;8.80;78.50
55648;DHT22;45266;48.756;9.246;2024-03-23T07:48:32;9.00;77.20
55648;DHT22;45266;48.756;9.246;2024-03-23T07:53:33;8.90;77.00
55648;DHT22;45266;48.756;9.246;2024-03-23T07:58:36;8.80;77.00
55648;DHT22;45266;48.756;9.246;2024-03-23T08:03:41;8.60;77.50
55648;DHT22;45266;48.756;9.246;2024-03-23T08:08:46;8.40;80.20
55648;DHT22;45266;48.756;9.246;2024-03-23T08:13:47;8.30;81.60
55648;DHT22;45266;48.756;9.246;2024-03-23T08:18:50;8.10;82.10
55648;DHT22;45266;48.756;9.246;2024-03-23T08:23:51;8.10;82.50
55648;DHT22;45266;48.756;9.246;2024-03-23T08:28:52;8.00;82.30
55648;DHT22;45266;48.756;9.246;2024-03-23T08:33:55;8.00;82.10
55648;DHT22;45266;48.756;9.246;2024-03-23T08:38:56;8.10;80.50
55648;DHT22;45266;48.756;9.246;2024-03-23T08:43:57;8.10;81.40
55648;DHT22;45266;48.756;9.246;2024-03-23T08:48:58;8.10;80.00
55648;DHT22;45266;48.756;9.246;2024-03-23T08:53:59;8.10;80.10
55648;DHT22;45266;48.756;9.246;2024-03-23T08:59:00;8.00;79.60
55648;DHT22;45266;48.756;9.246;2024-03-23T09:04:01;8.00;79.30
55648;DHT22;45266;48.756;9.246;2024-03-23T09:09:03;8.10;78.60
55648;DHT22;45266;48.756;9.246;2024-03-23T09:14:04;8.20;77.20
55648;DHT22;45266;48.756;9.246;2024-03-23T09:19:05;8.20;76.20
55648;DHT22;45266;48.756;9.246;2024-03-23T09:24:06;8.10;76.30
55648;DHT22;45266;48.756;9.246;2024-03-23T09:29:07;8.20;75.50
55648;DHT22;45266;48.756;9.246;2024-03-23T09:34:08;8.20;75.50
55648;DHT22;45266;48.756;9.246;2024-03-23T09:39:09;8.20;74.10
55648;DHT22;45266;48.756;9.246;2024-03-23T09:44:10;8.40;71.40
55648;DHT22;45266;48.756;9.246;2024-03-23T09:49:11;8.70;66.60
55648;DHT22;45266;48.756;9.246;2024-03-23T09:54:13;8.90;65.00
55648;DHT22;45266;48.756;9.246;2024-03-23T09:59:14;9.10;61.40
55648;DHT22;45266;48.756;9.246;2024-03-23T10:04:40;9.00;60.80
55648;DHT22;45266;48.756;9.246;2024-03-23T10:09:42;9.00;57.90
55648;DHT22;45266;48.756;9.246;2024-03-23T10:14:43;9.00;57.60
55648;DHT22;45266;48.756;9.246;2024-03-23T10:19:49;9.00;56.30
55648;DHT22;45266;48.756;9.246;2024-03-23T10:24:50;9.00;56.40
55648;DHT22;45266;48.756;9.246;2024-03-23T10:29:51;9.10;57.10
55648;DHT22;45266;48.756;9.246;2024-03-23T10:34:52;9.00;56.80
55648;DHT22;45266;48.756;9.246;2024-03-23T10:39:53;9.00;59.00
55648;DHT22;45266;48.756;9.246;2024-03-23T10:44:54;9.00;58.90
55648;DHT22;45266;48.756;9.246;2024-03-23T10:49:56;8.90;58.10
55648;DHT22;45266;48.756;9.246;2024-03-23T10:54:58;8.90;57.60
55648;DHT22;45266;48.756;9.246;2024-03-23T10:59:59;8.80;58.40
55648;DHT22;45266;48.756;9.246;2024-03-23T11:10:28;8.00;66.40
55648;DHT22;45266;48.756;9.246;2024-03-23T11:15:30;7.20;71.70
55648;DHT22;45266;48.756;9.246;2024-03-23T11:20:35;6.50;76.30
55648;DHT22;45266;48.756;9.246;2024-03-23T11:25:36;6.10;80.10
55648;DHT22;45266;48.756;9.246;2024-03-23T11:30:37;6.40;81.50
55648;DHT22;45266;48.756;9.246;2024-03-23T11:35:40;6.60;80.10
55648;DHT22;45266;48.756;9.246;2024-03-23T11:40:48;6.90;80.30
55648;DHT22;45266;48.756;9.246;2024-03-23T11:45:51;7.40;79.30
55648;DHT22;45266;48.756;9.246;2024-03-23T11:50:57;7.80;77.50
55648;DHT22;45266;48.756;9.246;2024-03-23T11:55:59;8.00;77.50
55648;DHT22;45266;48.756;9.246;2024-03-23T12:01:02;8.40;74.00
55648;DHT22;45266;48.756;9.246;2024-03-23T12:06:04;8.80;68.30
55648;DHT22;45266;48.756;9.246;2024-03-23T12:11:10;8.80;65.60
55648;DHT22;45266;48.756;9.246;2024-03-23T12:16:14;9.00;65.60
55648;DHT22;45266;48.756;9.246;2024-03-23T12:21:16;8.90;63.70
55648;DHT22;45266;48.756;9.246;2024-03-23T12:26:21;8.80;63.20
55648;DHT22;45266;48.756;9.246;2024-03-23T12:31:23;8.90;61.30
55648;DHT22;45266;48.756;9.246;2024-03-23T12:36:25;8.80;60.30
55648;DHT22;45266;48.756;9.246;2024-03-23T12:41:26;8.80;59.80
55648;DHT22;45266;48.756;9.246;2024-03-23T12:46:27;8.90;57.60
55648;DHT22;45266;48.756;9.246;2024-03-23T12:51:28;9.10;59.70
55648;DHT22;45266;48.756;9.246;2024-03-23T12:56:29;9.20;57.00
55648;DHT22;45266;48.756;9.246;2024-03-23T13:01:30;9.20;57.90
55648;DHT22;45266;48.756;9.246;2024-03-23T13:06:31;8.90;57.10
55648;DHT22;45266;48.756;9.246;2024-03-23T13:11:35;8.80;56.40
55648;DHT22;45266;48.756;9.246;2024-03-23T13:16:36;9.00;58.20
55648;DHT22;45266;48.756;9.246;2024-03-23T13:21:37;9.40;58.50
55648;DHT22;45266;48.756;9.246;2024-03-23T13:26:38;9.20;57.00
55648;DHT22;45266;48.756;9.246;2024-03-23T13:31:39;9.50;57.90
55648;DHT22;45266;48.756;9.246;2024-03-23T13:36:40;10.00;57.10
55648;DHT22;45266;48.756;9.246;2024-03-23T13:41:42;10.00;55.50
55648;DHT22;45266;48.756;9.246;2024-03-23T13:46:44;10.00;55.40
55648;DHT22;45266;48.756;9.246;2024-03-23T13:51:46;10.30;52.10
55648;DHT22;45266;48.756;9.246;2024-03-23T13:56:49;10.80;49.70
55648;DHT22;45266;48.756;9.246;2024-03-23T14:01:50;10.90;45.70
55648;DHT22;45266;48.756;9.246;2024-03-23T14:06:51;10.70;44.80
55648;DHT22;45266;48.756;9.246;2024-03-23T14:11:53;10.70;46.10
55648;DHT22;45266;48.756;9.246;2024-03-23T14:16:53;10.20;48.40
55648;DHT22;45266;48.756;9.246;2024-03-23T14:21:54;9.70;51.30
55648;DHT22;45266;48.756;9.246;2024-03-23T14:26:55;8.80;57.60
55648;DHT22;45266;48.756;9.246;2024-03-23T14:31:56;7.80;66.20
55648;DHT22;45266;48.756;9.246;2024-03-23T14:36:57;7.90;71.20
55648;DHT22;45266;48.756;9.246;2024-03-23T14:42:00;8.10;69.40
55648;DHT22;45266;48.756;9.246;2024-03-23T14:47:00;8.40;68.10
55648;DHT22;45266;48.756;9.246;2024-03-23T14:52:02;8.60;65.80
55648;DHT22;45266;48.756;9.246;2024-03-23T14:57:03;8.90;63.50
55648;DHT22;45266;48.756;9.246;2024-03-23T15:02:05;8.40;63.50
55648;DHT22;45266;48.756;9.246;2024-03-23T15:07:05;8.20;64.00
55648;DHT22;45266;48.756;9.246;2024-03-23T15:12:07;8.10;64.30
55648;DHT22;45266;48.756;9.246;2024-03-23T15:17:08;7.80;65.80
55648;DHT22;45266;48.756;9.246;2024-03-23T15:22:09;7.60;66.10
55648;DHT22;45266;48.756;9.246;2024-03-23T15:27:11;7.40;65.00
55648;DHT22;45266;48.756;9.246;2024-03-23T15:32:12;7.30;65.90
55648;DHT22;45266;48.756;9.246;2024-03-23T15:37:15;7.40;66.70
55648;DHT22;45266;48.756;9.246;2024-03-23T15:42:15;7.40;65.40
55648;DHT22;45266;48.756;9.246;2024-03-23T15:47:16;7.40;63.40
55648;DHT22;45266;48.756;9.246;2024-03-23T15:52:17;7.40;62.80
55648;DHT22;45266;48.756;9.246;2024-03-23T15:57:18;7.40;62.50
55648;DHT22;45266;48.756;9.246;2024-03-23T16:02:19;7.50;63.00
55648;DHT22;45266;48.756;9.246;2024-03-23T16:07:21;7.40;65.10
55648;DHT22;45266;48.756;9.246;2024-03-23T16:12:22;7.30;64.00
55648;DHT22;45266;48.756;9.246;2024-03-23T16:17:23;7.30;64.70
55648;DHT22;45266;48.756;9.246;2024-03-23T16:22:24;7.30;64.70
55648;DHT22;45266;48.756;9.246;2024-03-23T16:27:25;7.20;62.40
55648;DHT22;45266;48.756;9.246;2024-03-23T16:32:26;7.00;63.70
55648;DHT22;45266;48.756;9.246;2024-03-23T16:37:30;7.00;63.40
55648;DHT22;45266;48.756;9.246;2024-03-23T16:42:31;6.80;63.60
55648;DHT22;45266;48.756;9.246;2024-03-23T16:47:32;6.80;64.50
55648;DHT22;45266;48.756;9.246;2024-03-23T16:52:34;6.80;64.00
55648;DHT22;45266;48.756;9.246;2024-03-23T16:57:38;6.80;64.40
55648;DHT22;45266;48.756;9.246;2024-03-23T17:02:39;6.70;67.20
55648;DHT22;45266;48.756;9.246;2024-03-23T17:07:40;6.40;71.40
55648;DHT22;45266;48.756;9.246;2024-03-23T17:12:41;6.20;72.40
55648;DHT22;45266;48.756;9.246;2024-03-23T17:17:42;6.00;73.00
55648;DHT22;45266;48.756;9.246;2024-03-23T17:22:44;5.90;73.70
55648;DHT22;45266;48.756;9.246;2024-03-23T17:27:45;5.90;71.20
55648;DHT22;45266;48.756;9.246;2024-03-23T17:32:46;5.80;72.10
55648;DHT22;45266;48.756;9.246;2024-03-23T17:37:47;5.70;73.40
55648;DHT22;45266;48.756;9.246;2024-03-23T17:42:48;5.70;74.30
55648;DHT22;45266;48.756;9.246;2024-03-23T17:47:49;5.70;76.10
55648;DHT22;45266;48.756;9.246;2024-03-23T17:52:51;5.90;73.90
55648;DHT22;45266;48.756;9.246;2024-03-23T17:57:52;5.40;74.70
55648;DHT22;45266;48.756;9.246;2024-03-23T18:02:53;4.40;80.30
55648;DHT22;45266;48.756;9.246;2024-03-23T18:07:54;4.00;84.10
55648;DHT22;45266;48.756;9.246;2024-03-23T18:12:55;3.90;85.40
55648;DHT22;45266;48.756;9.246;2024-03-23T18:17:56;4.00;86.00
55648;DHT22;45266;48.756;9.246;2024-03-23T18:22:56;3.90;86.90
55648;DHT22;45266;48.756;9.246;2024-03-23T18:27:58;4.00;88.20
55648;DHT22;45266;48.756;9.246;2024-03-23T18:32:59;3.90;87.60
55648;DHT22;45266;48.756;9.246;2024-03-23T18:38:00;3.60;87.50
55648;DHT22;45266;48.756;9.246;2024-03-23T18:43:01;3.50;88.00
55648;DHT22;45266;48.756;9.246;2024-03-23T18:48:03;3.50;89.10
55648;DHT22;45266;48.756;9.246;2024-03-23T18:53:05;3.50;89.30
55648;DHT22;45266;48.756;9.246;2024-03-23T18:58:06;3.30;89.10
55648;DHT22;45266;48.756;9.246;2024-03-23T19:03:07;3.30;90.00
55648;DHT22;45266;48.756;9.246;2024-03-23T19:08:08;3.30;90.20
55648;DHT22;45266;48.756;9.246;2024-03-23T19:13:09;3.30;89.90
55648;DHT22;45266;48.756;9.246;2024-03-23T19:18:09;3.20;90.20
55648;DHT22;45266;48.756;9.246;2024-03-23T19:23:10;3.30;91.10
55648;DHT22;45266;48.756;9.246;2024-03-23T19:28:11;3.20;91.20
55648;DHT22;45266;48.756;9.246;2024-03-23T19:33:12;3.10;91.00
55648;DHT22;45266;48.756;9.246;2024-03-23T19:38:15;3.10;91.40
55648;DHT22;45266;48.756;9.246;2024-03-23T19:43:16;3.00;91.80
55648;DHT22;45266;48.756;9.246;2024-03-23T19:48:17;3.00;91.60
55648;DHT22;45266;48.756;9.246;2024-03-23T19:53:18;2.80;91.50
55648;DHT22;45266;48.756;9.246;2024-03-23T19:58:19;2.70;91.30
55648;DHT22;45266;48.756;9.246;2024-03-23T20:03:20;2.50;91.70
55648;DHT22;45266;48.756;9.246;2024-03-23T20:08:21;2.50;91.80
55648;DHT22;45266;48.756;9.246;2024-03-23T20:13:21;2.30;92.00
55648;DHT22;45266;48.756;9.246;2024-03-23T20:18:25;2.20;91.80
55648;DHT22;45266;48.756;9.246;2024-03-23T20:23:27;2.10;92.20
55648;DHT22;45266;48.756;9.246;2024-03-23T20:28:28;2.10;92.10
55648;DHT22;45266;48.756;9.246;2024-03-23T20:33:29;2.10;92.90
55648;DHT22;45266;48.756;9.246;2024-03-23T20:38:30;2.00;93.00
55648;DHT22;45266;48.756;9.246;2024-03-23T20:43:31;1.90;93.20
55648;DHT22;45266;48.756;9.246;2024-03-23T20:48:32;1.90;93.70
55648;DHT22;45266;48.756;9.246;2024-03-23T20:53:35;1.90;93.70
55648;DHT22;45266;48.756;9.246;2024-03-23T20:58:36;1.80;93.80
55648;DHT22;45266;48.756;9.246;2024-03-23T21:03:39;1.80;93.90
55648;DHT22;45266;48.756;9.246;2024-03-23T21:08:40;1.80;94.00
55648;DHT22;45266;48.756;9.246;2024-03-23T21:13:42;1.70;94.00
55648;DHT22;45266;48.756;9.246;2024-03-23T21:18:43;1.60;94.40
55648;DHT22;45266;48.756;9.246;2024-03-23T21:23:44;1.60;94.80
55648;DHT22;45266;48.756;9.246;2024-03-23T21:28:44;1.60;94.60
55648;DHT22;45266;48.756;9.246;2024-03-23T21:33:45;1.70;94.80
55648;DHT22;45266;48.756;9.246;2024-03-23T21:38:46;1.70;94.90
55648;DHT22;45266;48.756;9.246;2024-03-23T21:43:47;1.80;95.40
55648;DHT22;45266;48.756;9.246;2024-03-23T21:48:49;1.90;95.50
55648;DHT22;45266;48.756;9.246;2024-03-23T21:53:50;2.00;95.70
55648;DHT22;45266;48.756;9.246;2024-03-23T21:58:53;2.10;95.70
55648;DHT22;45266;48.756;9.246;2024-03-23T22:03:54;2.30;95.10
55648;DHT22;45266;48.756;9.246;2024-03-23T22:08:56;2.40;94.40
55648;DHT22;45266;48.756;9.246;2024-03-23T22:13:57;2.50;94.30
55648;DHT22;45266;48.756;9.246;2024-03-23T22:18:58;2.50;94.00
55648;DHT22;45266;48.756;9.246;2024-03-23T22:23:59;2.70;93.30
55648;DHT22;45266;48.756;9.246;2024-03-23T22:29:00;2.70;92.20
55648;DHT22;45266;48.756;9.246;2024-03-23T22:34:01;2.60;92.20
55648;DHT22;45266;48.756;9.246;2024-03-23T22:39:02;2.60;93.00
55648;DHT22;45266;48.756;9.246;2024-03-23T22:44:05;2.50;93.00
55648;DHT22;45266;48.756;9.246;2024-03-23T22:49:06;2.50;93.50
55648;DHT22;45266;48.756;9.246;2024-03-23T22:54:07;2.40;93.60
55648;DHT22;45266;48.756;9.246;2024-03-23T22:59:08;2.30;93.70
55648;DHT22;45266;48.756;9.246;2024-03-23T23:04:09;2.30;93.80
55648;DHT22;45266;48.756;9.246;2024-03-23T23:09:10;2.30;94.40
55648;DHT22;45266;48.756;9.246;2024-03-23T23:14:13;2.40;94.70
55648;DHT22;45266;48.756;9.246;2024-03-23T23:19:13;2.40;94.70
55648;DHT22;45266;48.756;9.246;2024-03-23T23:24:16;2.50;95.10
55648;DHT22;45266;48.756;9.246;2024-03-23T23:29:17;2.60;94.10
55648;DHT22;45266;48.756;9.246;2024-03-23T23:34:19;2.70;94.00
55648;DHT22;45266;48.756;9.246;2024-03-23T23:39:20;2.70;94.10
55648;DHT22;45266;48.756;9.246;2024-03-23T23:44:21;2.70;94.10
55648;DHT22;45266;48.756;9.246;2024-03-23T23:49:22;2.80;94.00
55648;DHT22;45266;48.756;9.246;2024-03-23T23:54:23;2.70;94.10
55648;DHT22;45266;48.756;9.246;2024-03-23T23:59:25;2.80;94.60
